createdAt,value
2022-11-19T00:01:26.596Z,6.50
2022-11-19T00:03:53.598Z,4.00
2022-11-19T00:06:27.619Z,4.83
2022-11-19T00:08:54.816Z,4.63
2022-11-19T00:11:45.154Z,5.33
2022-11-19T00:14:13.877Z,4.57
2022-11-19T00:16:41.097Z,4.17
2022-11-19T00:19:07.897Z,4.13
2022-11-19T00:21:34.858Z,4.67
2022-11-19T00:24:01.879Z,4.13
2022-11-19T00:26:28.566Z,5.30
2022-11-19T00:28:55.479Z,4.80
2022-11-19T00:31:22.555Z,4.40
2022-11-19T00:33:50.671Z,5.70
2022-11-19T00:36:17.472Z,3.33
2022-11-19T00:38:44.252Z,4.30
2022-11-19T00:41:10.976Z,5.90
2022-11-19T00:43:50.056Z,4.97
2022-11-19T00:46:27.458Z,4.63
2022-11-19T00:48:56.298Z,4.20
2022-11-19T00:51:25.007Z,4.73
2022-11-19T00:53:51.879Z,4.27
2022-11-19T00:56:20.572Z,8.33
2022-11-19T00:58:48.298Z,5.17
2022-11-19T01:01:17.700Z,5.10
2022-11-19T01:03:47.691Z,4.73
2022-11-19T01:06:19.090Z,5.33
2022-11-19T01:08:48.482Z,4.40
2022-11-19T01:11:18.592Z,4.40
2022-11-19T01:13:45.824Z,4.83
2022-11-19T01:16:39.997Z,3.73
2022-11-19T01:19:08.901Z,9.83
2022-11-19T01:21:36.620Z,4.60
2022-11-19T01:24:04.520Z,4.23
2022-11-19T01:26:31.584Z,4.40
2022-11-19T01:28:58.546Z,4.80
2022-11-19T01:31:27.751Z,5.10
2022-11-19T01:33:55.205Z,4.47
2022-11-19T01:36:27.557Z,4.60
2022-11-19T01:38:55.277Z,6.43
2022-11-19T01:41:25.769Z,7.37
2022-11-19T01:43:56.023Z,6.70
2022-11-19T01:46:24.973Z,7.97
2022-11-19T01:48:55.195Z,10.90
2022-11-19T01:51:27.862Z,5.47
2022-11-19T01:54:00.630Z,7.90
2022-11-19T01:56:29.053Z,4.43
2022-11-19T01:59:00.855Z,5.10
2022-11-19T02:01:28.867Z,5.83
2022-11-19T02:03:55.702Z,5.33
2022-11-19T02:06:22.473Z,5.03
2022-11-19T02:08:53.124Z,5.90
2022-11-19T02:11:41.334Z,5.73
2022-11-19T02:14:22.649Z,5.03
2022-11-19T02:17:19.057Z,6.17
2022-11-19T02:20:19.605Z,4.73
2022-11-19T02:23:39.570Z,11.70
2022-11-19T02:26:34.802Z,7.40
2022-11-19T02:29:07.193Z,4.97
2022-11-19T02:31:47.561Z,5.17
2022-11-19T02:34:33.872Z,6.50
2022-11-19T02:37:08.178Z,5.43
2022-11-19T02:39:41.105Z,4.87
2022-11-19T02:42:18.912Z,4.67
2022-11-19T02:44:58.896Z,5.67
2022-11-19T02:47:45.374Z,4.97
2022-11-19T02:50:19.860Z,5.00
2022-11-19T02:52:48.074Z,5.47
2022-11-19T02:55:17.617Z,10.30
2022-11-19T02:57:50.768Z,4.67
2022-11-19T03:00:36.654Z,5.73
2022-11-19T03:03:29.044Z,4.67
2022-11-19T03:06:11.842Z,8.20
2022-11-19T03:08:38.790Z,4.90
2022-11-19T03:11:15.789Z,6.53
2022-11-19T03:14:10.244Z,5.00
2022-11-19T03:16:43.190Z,4.43
2022-11-19T03:19:25.031Z,5.73
2022-11-19T03:21:57.676Z,5.20
2022-11-19T03:24:31.281Z,7.07
2022-11-19T03:27:17.071Z,4.87
2022-11-19T03:29:47.668Z,5.07
2022-11-19T03:32:19.234Z,5.70
2022-11-19T03:34:50.886Z,5.70
2022-11-19T03:37:22.340Z,6.00
2022-11-19T03:39:51.466Z,4.70
2022-11-19T03:42:20.230Z,5.23
2022-11-19T03:44:54.491Z,5.10
2022-11-19T03:47:41.620Z,5.63
2022-11-19T03:50:21.642Z,14.50
2022-11-19T03:52:48.330Z,4.23
2022-11-19T03:55:16.273Z,4.80
2022-11-19T03:57:43.395Z,7.17
2022-11-19T04:00:10.731Z,5.60
2022-11-19T04:02:41.760Z,7.13
2022-11-19T04:05:09.522Z,6.10
2022-11-19T04:07:36.124Z,4.77
2022-11-19T04:10:03.506Z,5.17
2022-11-19T04:12:30.033Z,5.03
2022-11-19T04:14:56.609Z,6.77
2022-11-19T04:17:23.326Z,4.93
2022-11-19T04:19:49.919Z,5.20
2022-11-19T04:22:16.497Z,6.53
2022-11-19T04:24:43.058Z,4.40
2022-11-19T04:27:09.651Z,7.30
2022-11-19T04:29:36.827Z,5.90
2022-11-19T04:32:03.489Z,6.07
2022-11-19T04:34:30.342Z,5.10
2022-11-19T04:36:56.930Z,4.87
2022-11-19T04:39:23.928Z,5.20
2022-11-19T04:41:50.479Z,5.57
2022-11-19T04:44:17.046Z,5.80
2022-11-19T04:46:43.700Z,5.00
2022-11-19T04:49:10.263Z,4.87
2022-11-19T04:51:36.827Z,6.77
2022-11-19T04:54:03.817Z,5.53
2022-11-19T04:56:30.416Z,4.70
2022-11-19T04:58:57.059Z,6.40
2022-11-19T05:01:23.688Z,5.30
2022-11-19T05:03:50.637Z,5.53
2022-11-19T05:06:17.341Z,5.13
2022-11-19T05:08:43.945Z,5.67
2022-11-19T05:11:10.599Z,6.60
2022-11-19T05:13:37.137Z,5.20
2022-11-19T05:16:03.956Z,5.30
2022-11-19T05:18:30.516Z,5.00
2022-11-19T05:20:57.226Z,5.30
2022-11-19T05:23:24.633Z,5.37
2022-11-19T05:25:51.792Z,5.40
2022-11-19T05:28:18.551Z,5.97
2022-11-19T05:30:45.213Z,6.47
2022-11-19T05:33:12.262Z,5.27
2022-11-19T05:35:38.881Z,5.00
2022-11-19T05:38:06.448Z,6.27
2022-11-19T05:40:33.019Z,7.30
2022-11-19T05:43:04.522Z,7.80
2022-11-19T05:45:31.247Z,5.83
2022-11-19T05:47:57.925Z,6.30
2022-11-19T05:50:24.648Z,5.20
2022-11-19T05:52:51.505Z,6.47
2022-11-19T05:55:18.342Z,7.10
2022-11-19T05:57:44.902Z,7.00
2022-11-19T06:00:12.211Z,5.30
2022-11-19T06:02:41.730Z,6.67
2022-11-19T06:05:08.940Z,5.90
2022-11-19T06:07:35.645Z,9.60
2022-11-19T06:10:02.999Z,7.40
2022-11-19T06:12:30.412Z,7.07
2022-11-19T06:14:56.955Z,7.53
2022-11-19T06:17:23.555Z,6.77
2022-11-19T06:19:50.090Z,5.97
2022-11-19T06:22:16.806Z,8.73
2022-11-19T06:24:43.722Z,6.00
2022-11-19T06:27:10.279Z,6.30
2022-11-19T06:29:36.855Z,7.57
2022-11-19T06:32:04.204Z,11.00
2022-11-19T06:34:30.754Z,22.27
2022-11-19T06:36:58.690Z,13.63
2022-11-19T06:39:25.271Z,10.90
2022-11-19T06:41:51.884Z,12.37
2022-11-19T06:44:18.673Z,7.47
2022-11-19T06:46:45.694Z,7.70
2022-11-19T06:49:16.836Z,7.90
2022-11-19T06:51:46.447Z,7.23
2022-11-19T06:54:13.013Z,7.43
2022-11-19T06:56:39.531Z,6.73
2022-11-19T06:59:06.072Z,6.13
2022-11-19T07:01:32.678Z,6.30
2022-11-19T07:03:59.677Z,7.70
2022-11-19T07:06:27.001Z,14.70
2022-11-19T07:08:53.628Z,10.60
2022-11-19T07:11:26.229Z,6.43
2022-11-19T07:14:00.097Z,26.53
2022-11-19T07:16:35.565Z,15.83
2022-11-19T07:19:05.328Z,21.13
2022-11-19T07:21:32.453Z,14.53
2022-11-19T07:24:00.561Z,18.37
2022-11-19T07:26:27.397Z,11.90
2022-11-19T07:28:53.980Z,16.20
2022-11-19T07:31:20.649Z,14.63
2022-11-19T07:33:47.287Z,11.57
2022-11-19T07:36:18.092Z,12.60
2022-11-19T07:38:46.107Z,8.87
2022-11-19T07:41:31.197Z,11.90
2022-11-19T07:43:57.938Z,27.97
2022-11-19T07:46:24.481Z,30.93
2022-11-19T07:48:55.023Z,22.63
2022-11-19T07:51:22.529Z,16.93
2022-11-19T07:53:49.777Z,8.30
2022-11-19T07:56:17.121Z,9.30
2022-11-19T07:58:43.727Z,11.17
2022-11-19T08:01:12.045Z,7.57
2022-11-19T08:03:38.839Z,8.30
2022-11-19T08:06:06.283Z,11.27
2022-11-19T08:08:33.269Z,16.03
2022-11-19T08:11:06.003Z,14.53
2022-11-19T08:13:32.936Z,14.70
2022-11-19T08:16:08.595Z,15.73
2022-11-19T08:18:35.804Z,10.03
2022-11-19T08:21:04.874Z,8.93
2022-11-19T08:23:32.914Z,8.13
2022-11-19T08:26:00.386Z,6.60
2022-11-19T08:28:28.352Z,7.33
2022-11-19T08:30:55.125Z,7.63
2022-11-19T08:33:21.754Z,7.50
2022-11-19T08:35:48.784Z,7.37
2022-11-19T08:38:15.351Z,6.70
2022-11-19T08:40:41.955Z,7.93
2022-11-19T08:43:08.482Z,7.33
2022-11-19T08:45:37.684Z,9.00
2022-11-19T08:48:07.018Z,8.00
2022-11-19T08:50:33.737Z,6.53
2022-11-19T08:53:02.833Z,6.87
2022-11-19T08:55:30.898Z,7.07
2022-11-19T08:58:04.573Z,11.03
2022-11-19T09:00:33.179Z,8.27
2022-11-19T09:02:59.848Z,8.40
2022-11-19T09:05:26.920Z,6.60
2022-11-19T09:07:56.321Z,5.90
2022-11-19T09:10:22.861Z,6.00
2022-11-19T09:12:49.505Z,5.67
2022-11-19T09:15:16.236Z,5.67
2022-11-19T09:17:46.769Z,5.73
2022-11-19T09:20:14.339Z,4.80
2022-11-19T09:22:40.895Z,15.33
2022-11-19T09:25:08.905Z,5.17
2022-11-19T09:27:36.983Z,9.73
2022-11-19T09:30:07.826Z,8.93
2022-11-19T09:32:34.959Z,7.07
2022-11-19T09:35:01.780Z,5.73
2022-11-19T09:37:31.363Z,6.33
2022-11-19T09:39:57.938Z,10.50
2022-11-19T09:42:51.646Z,8.37
2022-11-19T09:45:22.239Z,7.33
2022-11-19T09:48:09.545Z,6.73
2022-11-19T09:50:53.487Z,9.60
2022-11-19T09:53:23.290Z,6.13
2022-11-19T09:55:53.002Z,7.00
2022-11-19T09:58:46.606Z,6.77
2022-11-19T10:01:15.684Z,6.30
2022-11-19T10:03:47.149Z,6.80
2022-11-19T10:06:29.586Z,5.53
2022-11-19T10:09:12.672Z,5.40
2022-11-19T10:11:39.973Z,5.77
2022-11-19T10:14:15.986Z,7.97
2022-11-19T10:16:58.234Z,8.00
2022-11-19T10:19:30.869Z,7.50
2022-11-19T10:22:10.405Z,7.73
2022-11-19T10:24:49.762Z,7.23
2022-11-19T10:27:22.617Z,5.93
2022-11-19T10:29:54.706Z,6.13
2022-11-19T10:32:27.762Z,6.20
2022-11-19T10:35:00.237Z,5.43
2022-11-19T10:37:34.245Z,6.03
2022-11-19T10:40:12.042Z,6.70
2022-11-19T10:42:43.599Z,6.30
2022-11-19T10:45:16.439Z,5.40
2022-11-19T10:48:08.889Z,5.03
2022-11-19T10:50:36.701Z,5.63
2022-11-19T10:53:33.356Z,5.53
2022-11-19T10:56:04.282Z,5.43
2022-11-19T10:58:30.777Z,5.50
2022-11-19T11:01:00.797Z,5.13
2022-11-19T11:03:34.044Z,4.47
2022-11-19T11:06:05.273Z,4.70
2022-11-19T11:08:51.690Z,4.77
2022-11-19T11:11:24.788Z,5.47
2022-11-19T11:14:10.246Z,4.43
2022-11-19T11:16:46.025Z,5.43
2022-11-19T11:19:19.138Z,20.17
2022-11-19T11:21:51.376Z,3.93
2022-11-19T11:24:19.261Z,7.37
2022-11-19T11:26:45.895Z,4.00
2022-11-19T11:29:12.377Z,4.57
2022-11-19T11:31:42.646Z,5.10
2022-11-19T11:34:27.553Z,4.83
2022-11-19T11:36:56.351Z,4.77
2022-11-19T11:39:27.973Z,6.60
2022-11-19T11:42:17.646Z,5.07
2022-11-19T11:44:53.396Z,6.73
2022-11-19T11:47:24.602Z,4.20
2022-11-19T11:50:07.940Z,4.37
2022-11-19T11:52:43.701Z,5.20
2022-11-19T11:55:31.803Z,4.87
2022-11-19T11:58:05.858Z,5.03
2022-11-19T12:00:45.621Z,5.60
2022-11-19T12:03:18.807Z,5.40
2022-11-19T12:06:06.623Z,7.60
2022-11-19T12:08:58.238Z,8.93
2022-11-19T12:11:54.131Z,9.63
2022-11-19T12:14:44.431Z,4.10
2022-11-19T12:17:32.847Z,8.30
2022-11-19T12:20:02.204Z,5.83
2022-11-19T12:22:37.878Z,5.90
2022-11-19T12:25:21.822Z,7.60
2022-11-19T12:27:57.140Z,4.80
2022-11-19T12:30:30.780Z,6.40
2022-11-19T12:33:25.001Z,13.37
2022-11-19T12:36:17.493Z,4.93
2022-11-19T12:39:04.562Z,3.57
2022-11-19T12:41:54.937Z,3.90
2022-11-19T12:44:42.760Z,3.90
2022-11-19T12:47:42.146Z,4.30
2022-11-19T12:50:15.552Z,8.13
2022-11-19T12:53:03.531Z,5.40
2022-11-19T12:55:45.562Z,13.00
2022-11-19T12:58:36.063Z,4.93
2022-11-19T13:05:52.933Z,3.03
2022-11-19T14:46:50.026Z,3.50
2022-11-19T14:49:31.776Z,3.63
2022-11-19T14:51:59.111Z,3.60
2022-11-19T14:54:37.938Z,3.73
2022-11-19T14:57:30.141Z,3.70
2022-11-19T15:00:01.505Z,3.40
2022-11-19T15:02:45.568Z,10.57
2022-11-19T15:05:20.347Z,4.00
2022-11-19T15:08:11.829Z,4.50
2022-11-19T15:11:13.896Z,4.50
2022-11-19T15:13:48.636Z,4.47
2022-11-19T15:16:25.986Z,12.77
2022-11-19T15:19:25.793Z,12.27
2022-11-19T15:22:16.975Z,5.73
2022-11-19T15:24:56.586Z,7.00
2022-11-19T15:27:49.737Z,6.63
2022-11-19T15:30:19.523Z,7.30
2022-11-19T15:33:03.420Z,9.93
2022-11-19T15:35:35.147Z,7.47
2022-11-19T15:38:21.554Z,7.40
2022-11-19T15:40:51.298Z,8.63
2022-11-19T15:43:27.005Z,9.30
2022-11-19T15:46:17.885Z,9.20
2022-11-19T15:49:10.746Z,8.10
2022-11-19T15:51:59.466Z,9.00
2022-11-19T15:54:31.291Z,8.83
2022-11-19T15:57:06.577Z,12.17
2022-11-19T15:59:37.749Z,15.20
2022-11-19T16:02:14.151Z,12.70
2022-11-19T16:04:40.876Z,28.70
2022-11-19T16:07:09.657Z,31.17
2022-11-19T16:09:37.069Z,31.60
2022-11-19T16:12:23.211Z,30.27
2022-11-19T16:15:10.655Z,21.17
2022-11-19T16:17:44.446Z,19.40
2022-11-19T16:20:11.301Z,12.60
2022-11-19T16:23:04.616Z,8.30
2022-11-19T16:25:35.455Z,9.17
2022-11-19T16:28:10.051Z,6.77
2022-11-19T16:30:46.309Z,7.10
2022-11-19T16:33:16.999Z,7.90
2022-11-19T16:35:46.087Z,9.90
2022-11-19T16:38:23.404Z,6.80
2022-11-19T16:41:09.095Z,8.90
2022-11-19T16:43:36.474Z,12.10
2022-11-19T16:46:05.173Z,6.10
2022-11-19T16:48:50.113Z,5.47
2022-11-19T16:51:31.893Z,8.37
2022-11-19T16:53:59.358Z,7.20
2022-11-19T16:56:33.689Z,8.23
2022-11-19T16:59:04.273Z,5.97
2022-11-19T17:01:32.112Z,7.57
2022-11-19T17:04:03.569Z,6.80
2022-11-19T17:06:33.043Z,15.40
2022-11-19T17:09:00.904Z,8.20
2022-11-19T17:12:06.835Z,17.00
2022-11-19T17:14:39.475Z,16.33
2022-11-19T17:17:39.519Z,14.27
2022-11-19T17:20:35.799Z,18.70
2022-11-19T17:23:10.102Z,31.27
2022-11-19T17:25:45.707Z,58.23
2022-11-19T17:28:19.652Z,71.87
2022-11-19T17:30:49.416Z,54.33
2022-11-19T17:33:18.201Z,40.10
2022-11-19T17:35:47.312Z,36.47
2022-11-19T17:38:17.355Z,44.73
2022-11-19T17:40:53.354Z,46.80
2022-11-19T17:43:59.692Z,52.83
2022-11-19T17:46:28.785Z,35.00
2022-11-19T17:48:56.864Z,46.57
2022-11-19T17:51:25.419Z,35.23
2022-11-19T17:53:53.521Z,40.70
2022-11-19T17:56:29.590Z,42.67
2022-11-19T17:58:56.574Z,30.87
2022-11-19T18:01:23.278Z,21.90
2022-11-19T18:03:49.948Z,17.33
2022-11-19T18:06:18.114Z,12.13
2022-11-19T18:08:45.942Z,13.40
2022-11-19T18:11:18.891Z,17.13
2022-11-19T18:13:47.720Z,29.60
2022-11-19T18:16:26.218Z,29.17
2022-11-19T18:18:54.334Z,12.60
2022-11-19T18:21:22.823Z,14.97
2022-11-19T18:23:51.879Z,11.10
2022-11-19T18:26:22.300Z,13.67
2022-11-19T18:28:49.410Z,17.90
2022-11-19T18:31:22.940Z,19.70
2022-11-19T18:33:50.233Z,16.23
2022-11-19T18:36:17.602Z,17.60
2022-11-19T18:38:44.955Z,12.80
2022-11-19T18:41:13.260Z,12.00
2022-11-19T18:43:59.598Z,16.07
2022-11-19T18:46:26.712Z,21.63
2022-11-19T18:48:53.729Z,14.47
2022-11-19T18:51:21.409Z,17.77
2022-11-19T18:53:48.611Z,15.83
2022-11-19T18:56:16.953Z,13.60
2022-11-19T18:58:43.911Z,12.20
2022-11-19T19:01:11.223Z,14.93
2022-11-19T19:03:38.328Z,16.57
2022-11-19T19:06:07.655Z,18.10
2022-11-19T19:08:35.163Z,14.57
2022-11-19T19:11:23.495Z,22.50
2022-11-19T19:13:50.659Z,18.83
2022-11-19T19:16:17.432Z,15.77
2022-11-19T19:18:44.213Z,13.43
2022-11-19T19:21:21.678Z,15.53
2022-11-19T19:23:49.392Z,13.40
2022-11-19T19:26:18.152Z,13.13
2022-11-19T19:28:51.945Z,19.37
2022-11-19T19:31:22.888Z,15.90
2022-11-19T19:33:50.148Z,16.00
2022-11-19T19:36:18.165Z,19.27
2022-11-19T19:38:45.032Z,17.60
2022-11-19T19:41:15.547Z,14.57
2022-11-19T19:43:42.291Z,10.20
2022-11-19T19:46:15.985Z,10.50
2022-11-19T19:48:43.893Z,10.53
2022-11-19T19:51:13.244Z,16.33
2022-11-19T19:53:43.585Z,23.20
2022-11-19T19:56:15.834Z,30.37
2022-11-19T19:58:46.299Z,36.17
2022-11-19T20:01:21.829Z,35.97
2022-11-19T20:03:54.071Z,34.30
2022-11-19T20:06:23.485Z,34.40
2022-11-19T20:08:50.777Z,42.17
2022-11-19T20:11:24.666Z,25.33
2022-11-19T20:13:53.774Z,23.57
2022-11-19T20:16:25.968Z,16.67
2022-11-19T20:18:53.507Z,14.33
2022-11-19T20:21:28.223Z,18.93
2022-11-19T20:23:55.496Z,19.23
2022-11-19T20:26:24.929Z,13.67
2022-11-19T20:28:57.145Z,18.03
2022-11-19T20:31:24.951Z,12.80
2022-11-19T20:33:55.322Z,13.53
2022-11-19T20:36:24.436Z,13.87
2022-11-19T20:38:51.880Z,13.17
2022-11-19T20:41:39.940Z,16.83
2022-11-19T20:44:22.716Z,14.17
2022-11-19T20:46:58.427Z,16.10
2022-11-19T20:49:27.693Z,19.80
2022-11-19T20:51:59.111Z,19.23
2022-11-19T20:54:27.383Z,22.10
2022-11-19T20:56:58.048Z,21.20
2022-11-19T20:59:26.512Z,25.70
2022-11-19T21:01:55.311Z,20.37
2022-11-19T21:04:24.934Z,26.83
2022-11-19T21:06:55.100Z,20.30
2022-11-19T21:09:22.469Z,17.07
2022-11-19T21:11:49.820Z,19.87
2022-11-19T21:14:16.766Z,17.07
2022-11-19T21:16:43.677Z,14.87
2022-11-19T21:19:11.329Z,16.53
2022-11-19T21:21:38.526Z,18.33
2022-11-19T21:24:05.607Z,20.27
2022-11-19T21:26:32.905Z,18.67
2022-11-19T21:29:00.376Z,23.63
2022-11-19T21:31:40.510Z,23.60
2022-11-19T21:34:09.241Z,29.17
2022-11-19T21:36:36.739Z,24.43
2022-11-19T21:39:07.450Z,30.60
2022-11-19T21:41:34.727Z,21.93
2022-11-19T21:44:02.649Z,20.17
2022-11-19T21:46:29.628Z,18.23
2022-11-19T21:48:56.630Z,14.40
2022-11-19T21:51:25.234Z,18.03
2022-11-19T21:53:57.108Z,14.33
2022-11-19T21:56:25.135Z,14.30
2022-11-19T21:58:54.686Z,16.83
2022-11-19T22:01:21.702Z,12.03
2022-11-19T22:03:49.177Z,17.20
2022-11-19T22:06:16.191Z,14.17
2022-11-19T22:08:45.135Z,17.57
2022-11-19T22:11:31.068Z,15.17
2022-11-19T22:14:06.667Z,16.17
2022-11-19T22:16:36.811Z,15.90
2022-11-19T22:19:05.679Z,18.50
2022-11-19T22:21:32.964Z,14.57
2022-11-19T22:24:00.588Z,15.33
2022-11-19T22:26:27.896Z,19.00
2022-11-19T22:28:55.420Z,14.27
2022-11-19T22:31:23.806Z,16.53
2022-11-19T22:33:52.988Z,16.93
2022-11-19T22:36:21.748Z,10.80
2022-11-19T22:38:52.519Z,14.17
2022-11-19T22:41:23.035Z,15.87
2022-11-19T22:43:50.652Z,12.47
2022-11-19T22:46:18.579Z,14.60
2022-11-19T22:48:45.761Z,11.73
2022-11-19T22:51:17.208Z,12.57
2022-11-19T22:53:49.921Z,12.37
2022-11-19T22:56:25.758Z,12.27
2022-11-19T22:58:54.603Z,11.70
2022-11-19T23:01:24.265Z,14.90
2022-11-19T23:03:52.210Z,13.17
2022-11-19T23:06:19.826Z,15.23
2022-11-19T23:08:47.241Z,15.47
2022-11-19T23:11:15.905Z,13.90
2022-11-19T23:13:44.513Z,15.73
2022-11-19T23:16:17.379Z,14.80
2022-11-19T23:18:52.816Z,16.23
2022-11-19T23:21:28.019Z,19.33
2022-11-19T23:23:56.264Z,15.80
2022-11-19T23:26:25.817Z,15.53
2022-11-19T23:28:58.504Z,24.37
2022-11-19T23:31:28.507Z,21.17
2022-11-19T23:33:59.336Z,23.43
2022-11-19T23:36:29.353Z,17.57
2022-11-19T23:38:59.987Z,14.57
2022-11-19T23:41:27.735Z,25.40
2022-11-19T23:43:56.354Z,18.13
2022-11-19T23:46:29.209Z,13.90
2022-11-19T23:48:57.467Z,11.50
2022-11-19T23:51:29.398Z,17.27
2022-11-19T23:53:56.879Z,21.03
2022-11-19T23:56:34.161Z,12.70
2022-11-19T23:59:09.683Z,13.57
